首页
METAR-TAF:

METAR-TAF

机场 :

巴厘巴板, 印度尼西亚

纬度: 01-16-06S, 经度: 116-53-40E, 海拔: 4米

当前天气观测

该预报发布于48分钟前的15:30 UTC
风速6节,风向东北
温度 29°C
湿度 84%
气压 1010 hPa
能見度: 9000
少量云层高于1800英尺, 积雨云.
散云层高于1800英尺

METAR: WALL 131530Z 04006KT 9000 FEW018CB SCT018 29/26 Q1010 RMK CB TO SW

时间: 23:18 (16:18 UTC)

预报

该预报发布于5小时和18分钟前的11:00 UTC
预报有效从13日的 12点(UTC)到 14日的 18点(UTC)
风速12节,风向东转东北
能見度: 9000
少量云层高于2000英尺
成为
从 13日的 14点(UTC)到 13日的 16点(UTC)
散云层高于2000英尺
短暂存在
从 13日的 21点(UTC)到 13日的 24点(UTC)
少量云层高于2000英尺, 积雨云.
成为
从 14日的 00点(UTC)到 14日的 02点(UTC)
能见度10公里或以上

TAF: WALL 131100Z 1312/1418 07012KT 9000 FEW020 BECMG 1314/1316 SCT020 TEMPO 1321/1324 FEW020CB BECMG 1400/1402 9999

超过4000个机场的气象观测和天气预报(METAR&TAF报告)。

可查询的气象台以黄色和红色小点在地图上表示。

将鼠标移到小点上方,可查看气象台名称。

然后点击查看天气观测和预报。

如需切换地图:点击带黑十字的绿色按钮放大地图;点击带横线的绿色按钮缩小地图;或者点击绿色箭头查看邻近地区的地图。


METAR-TAF: